ARA127 GOBD-GABS
Flight info
| Callsign | ARA127 |
|---|---|
| Flight time | 1h 25m |
| Altitude | 37000 |
| Route | NURAS1B NURAS DCT SISNU UA601 PINVO DCT BIDOK BIDOK5D |
| Aircraft | B737/M-SDE2E3FGHIRWXY/LB1 |
Departure
| Time | 2026-05-07 16:09 |
|---|---|
| Airport | Blaise Diagne International Airport (GOBD) |
Arrival
| Time | 2026-05-07 17:35 |
|---|---|
| Airport | Modibo Keita International Airport (GABS) |
| Time | Latitude | Longitude | Altitude | Speed | Heading |
|---|---|---|---|---|---|
| 2026-05-07 15:08 | 14.67023 | -17.06846 | 271 ft | 0 kts | 82° |
| 2026-05-07 15:26 | 14.67021 | -17.06860 | 271 ft | 2 kts | 86° |
| 2026-05-07 15:26 | 14.67020 | -17.06877 | 271 ft | 2 kts | 89° |
| 2026-05-07 15:26 | 14.67021 | -17.06894 | 271 ft | 2 kts | 95° |
| 2026-05-07 15:27 | 14.67023 | -17.06911 | 274 ft | 2 kts | 101° |
| 2026-05-07 15:27 | 14.67027 | -17.06928 | 273 ft | 2 kts | 110° |
| 2026-05-07 15:27 | 14.67034 | -17.06943 | 272 ft | 2 kts | 122° |
| 2026-05-07 15:27 | 14.67044 | -17.06957 | 273 ft | 2 kts | 135° |
| 2026-05-07 15:28 | 14.67057 | -17.06968 | 271 ft | 2 kts | 149° |
| 2026-05-07 15:28 | 14.67066 | -17.06973 | 271 ft | 2 kts | 158° |
| 2026-05-07 15:28 | 14.67082 | -17.06978 | 270 ft | 2 kts | 170° |
| 2026-05-07 15:28 | 14.67092 | -17.06979 | 270 ft | 0 kts | 175° |
| 2026-05-07 15:41 | 14.67090 | -17.06979 | 270 ft | 1 kts | 175° |
| 2026-05-07 15:41 | 14.67075 | -17.06978 | 270 ft | 4 kts | 176° |
| 2026-05-07 15:42 | 14.67035 | -17.06976 | 271 ft | 7 kts | 179° |
| 2026-05-07 15:42 | 14.66972 | -17.06976 | 271 ft | 11 kts | 179° |
| 2026-05-07 15:42 | 14.66886 | -17.06976 | 272 ft | 14 kts | 181° |
| 2026-05-07 15:42 | 14.66778 | -17.06976 | 272 ft | 17 kts | 179° |
| 2026-05-07 15:43 | 14.66667 | -17.07015 | 273 ft | 19 kts | 249° |
| 2026-05-07 15:43 | 14.66574 | -17.07088 | 273 ft | 20 kts | 177° |
| 2026-05-07 15:43 | 14.66427 | -17.07085 | 274 ft | 22 kts | 182° |
| 2026-05-07 15:43 | 14.66266 | -17.07085 | 275 ft | 24 kts | 179° |
| 2026-05-07 15:44 | 14.66106 | -17.07082 | 279 ft | 23 kts | 179° |
| 2026-05-07 15:44 | 14.65950 | -17.07081 | 277 ft | 22 kts | 179° |
| 2026-05-07 15:44 | 14.65804 | -17.07080 | 278 ft | 16 kts | 179° |
| 2026-05-07 15:44 | 14.65775 | -17.07080 | 278 ft | 0 kts | 179° |
| 2026-05-07 15:45 | 14.65765 | -17.07080 | 278 ft | 6 kts | 179° |
| 2026-05-07 15:45 | 14.65706 | -17.07079 | 279 ft | 9 kts | 179° |
| 2026-05-07 15:46 | 14.65535 | -17.07112 | 284 ft | 17 kts | 253° |
| 2026-05-07 15:46 | 14.65535 | -17.07230 | 279 ft | 16 kts | 289° |
| 2026-05-07 15:46 | 14.65636 | -17.07269 | 279 ft | 20 kts | 360° |
| 2026-05-07 15:47 | 14.66034 | -17.07273 | 275 ft | 64 kts | 359° |
| 2026-05-07 15:47 | 14.66359 | -17.07276 | 274 ft | 33 kts | 359° |
| 2026-05-07 15:47 | 14.66510 | -17.07266 | 274 ft | 10 kts | 34° |
| 2026-05-07 15:47 | 14.66492 | -17.07222 | 275 ft | 8 kts | 158° |
| 2026-05-07 15:48 | 14.66442 | -17.07195 | 274 ft | 8 kts | 143° |
| 2026-05-07 15:48 | 14.66399 | -17.07159 | 274 ft | 8 kts | 142° |
| 2026-05-07 15:48 | 14.66356 | -17.07126 | 275 ft | 8 kts | 144° |
| 2026-05-07 15:48 | 14.66310 | -17.07098 | 279 ft | 8 kts | 155° |
| 2026-05-07 15:49 | 14.66235 | -17.07084 | 276 ft | 14 kts | 178° |
| 2026-05-07 15:49 | 14.66116 | -17.07083 | 276 ft | 20 kts | 178° |
| 2026-05-07 15:49 | 14.65981 | -17.07081 | 277 ft | 19 kts | 179° |
| 2026-05-07 15:49 | 14.65850 | -17.07080 | 278 ft | 19 kts | 180° |
| 2026-05-07 15:50 | 14.65721 | -17.07080 | 279 ft | 18 kts | 179° |
| 2026-05-07 15:50 | 14.65620 | -17.07129 | 279 ft | 18 kts | 255° |
| 2026-05-07 15:50 | 14.65627 | -17.07247 | 279 ft | 9 kts | 301° |
| 2026-05-07 15:50 | 14.65685 | -17.07270 | 278 ft | 8 kts | 0° |
| 2026-05-07 15:51 | 14.65707 | -17.07270 | 278 ft | 0 kts | 0° |
| 2026-05-07 15:52 | 14.65882 | -17.07272 | 276 ft | 70 kts | 359° |
| 2026-05-07 15:52 | 14.66331 | -17.07277 | 277 ft | 47 kts | 359° |
| 2026-05-07 15:53 | 14.66508 | -17.07239 | 274 ft | 10 kts | 101° |
| 2026-05-07 15:53 | 14.66452 | -17.07203 | 275 ft | 10 kts | 149° |
| 2026-05-07 15:53 | 14.66394 | -17.07168 | 275 ft | 10 kts | 150° |
| 2026-05-07 15:53 | 14.66320 | -17.07121 | 275 ft | 15 kts | 149° |
| 2026-05-07 15:54 | 14.66205 | -17.07085 | 276 ft | 20 kts | 174° |
| 2026-05-07 15:54 | 14.66051 | -17.07082 | 277 ft | 25 kts | 179° |
| 2026-05-07 15:54 | 14.65865 | -17.07081 | 278 ft | 29 kts | 180° |
| 2026-05-07 15:54 | 14.65718 | -17.07023 | 279 ft | 22 kts | 111° |
| 2026-05-07 15:55 | 14.65697 | -17.06879 | 282 ft | 17 kts | 137° |
| 2026-05-07 15:55 | 14.65720 | -17.06835 | 279 ft | 11 kts | 316° |
| 2026-05-07 15:55 | 14.65712 | -17.06910 | 279 ft | 11 kts | 258° |
| 2026-05-07 15:55 | 14.65712 | -17.06985 | 279 ft | 10 kts | 271° |
| 2026-05-07 15:56 | 14.65712 | -17.07022 | 284 ft | 0 kts | 270° |
| 2026-05-07 16:07 | 14.65710 | -17.07040 | 279 ft | 6 kts | 256° |
| 2026-05-07 16:07 | 14.65657 | -17.07076 | 279 ft | 13 kts | 199° |
| 2026-05-07 16:07 | 14.65615 | -17.07165 | 279 ft | 17 kts | 269° |
| 2026-05-07 16:08 | 14.65617 | -17.07195 | 279 ft | 2 kts | 274° |
| 2026-05-07 16:08 | 14.65630 | -17.07244 | 283 ft | 11 kts | 299° |
| 2026-05-07 16:08 | 14.65698 | -17.07270 | 278 ft | 11 kts | 0° |
| 2026-05-07 16:08 | 14.65929 | -17.07272 | 276 ft | 76 kts | 359° |
| 2026-05-07 16:09 | 14.66756 | -17.07284 | 326 ft | 155 kts | 359° |
| 2026-05-07 16:09 | 14.67930 | -17.07292 | 1094 ft | 181 kts | 359° |
| 2026-05-07 16:09 | 14.69232 | -17.07278 | 2151 ft | 191 kts | 1° |
| 2026-05-07 16:09 | 14.70650 | -17.07230 | 2694 ft | 220 kts | 2° |
| 2026-05-07 16:10 | 14.72267 | -17.07164 | 3227 ft | 234 kts | 3° |
| 2026-05-07 16:10 | 14.73846 | -17.07053 | 4127 ft | 225 kts | 4° |
| 2026-05-07 16:10 | 14.75401 | -17.06812 | 4692 ft | 236 kts | 22° |
| 2026-05-07 16:10 | 14.76713 | -17.05680 | 4884 ft | 264 kts | 59° |
| 2026-05-07 16:11 | 14.77130 | -17.03803 | 5484 ft | 277 kts | 95° |
| 2026-05-07 16:11 | 14.76545 | -17.01899 | 6342 ft | 281 kts | 111° |
| 2026-05-07 16:11 | 14.75850 | -16.99995 | 7141 ft | 285 kts | 109° |
| 2026-05-07 16:11 | 14.75182 | -16.98062 | 8019 ft | 287 kts | 109° |
| 2026-05-07 16:12 | 14.74514 | -16.96110 | 8899 ft | 289 kts | 110° |
| 2026-05-07 16:12 | 14.73838 | -16.94144 | 9776 ft | 292 kts | 110° |
| 2026-05-07 16:12 | 14.73146 | -16.92144 | 10397 ft | 304 kts | 110° |
| 2026-05-07 16:12 | 14.72403 | -16.90007 | 10693 ft | 325 kts | 110° |
| 2026-05-07 16:13 | 14.71628 | -16.87782 | 11355 ft | 332 kts | 111° |
| 2026-05-07 16:13 | 14.70843 | -16.85536 | 12219 ft | 333 kts | 111° |
| 2026-05-07 16:13 | 14.70051 | -16.83276 | 13049 ft | 336 kts | 111° |
| 2026-05-07 16:13 | 14.69247 | -16.80983 | 13766 ft | 342 kts | 111° |
| 2026-05-07 16:14 | 14.68434 | -16.78668 | 14489 ft | 345 kts | 111° |
| 2026-05-07 16:14 | 14.67607 | -16.76316 | 15159 ft | 351 kts | 111° |
| 2026-05-07 16:14 | 14.66770 | -16.73934 | 15857 ft | 356 kts | 111° |
| 2026-05-07 16:14 | 14.65919 | -16.71514 | 16562 ft | 361 kts | 111° |
| 2026-05-07 16:15 | 14.65349 | -16.69895 | 17004 ft | 364 kts | 111° |
| 2026-05-07 16:15 | 14.65196 | -16.69459 | 17122 ft | 365 kts | 111° |
| 2026-05-07 16:17 | 14.64181 | -16.66558 | 17912 ft | 371 kts | 112° |
| 2026-05-07 16:17 | 14.63292 | -16.64036 | 18509 ft | 377 kts | 112° |
| 2026-05-07 16:18 | 14.62385 | -16.61468 | 19029 ft | 384 kts | 111° |
| 2026-05-07 16:18 | 14.61465 | -16.58863 | 19619 ft | 388 kts | 112° |
| 2026-05-07 16:18 | 14.60536 | -16.56229 | 20190 ft | 393 kts | 111° |
| 2026-05-07 16:18 | 14.59594 | -16.53560 | 20767 ft | 398 kts | 111° |
| 2026-05-07 16:19 | 14.58641 | -16.50860 | 21327 ft | 403 kts | 112° |
| 2026-05-07 16:19 | 14.57688 | -16.48162 | 21849 ft | 408 kts | 112° |
| 2026-05-07 16:19 | 14.56711 | -16.45396 | 22351 ft | 414 kts | 112° |
| 2026-05-07 16:19 | 14.55717 | -16.42584 | 22859 ft | 419 kts | 112° |
| 2026-05-07 16:20 | 14.54714 | -16.39748 | 23351 ft | 424 kts | 112° |
| 2026-05-07 16:20 | 14.53698 | -16.36875 | 23784 ft | 428 kts | 112° |
| 2026-05-07 16:20 | 14.52672 | -16.33974 | 24219 ft | 432 kts | 112° |
| 2026-05-07 16:20 | 14.51639 | -16.31056 | 24642 ft | 435 kts | 112° |
| 2026-05-07 16:21 | 14.50596 | -16.28111 | 25070 ft | 439 kts | 113° |
| 2026-05-07 16:21 | 14.49546 | -16.25146 | 25495 ft | 442 kts | 113° |
| 2026-05-07 16:21 | 14.48484 | -16.22151 | 25912 ft | 446 kts | 113° |
| 2026-05-07 16:21 | 14.47414 | -16.19134 | 26327 ft | 449 kts | 113° |
| 2026-05-07 16:22 | 14.46336 | -16.16096 | 26738 ft | 453 kts | 113° |
| 2026-05-07 16:22 | 14.45251 | -16.13038 | 27146 ft | 456 kts | 114° |
| 2026-05-07 16:22 | 14.44156 | -16.09956 | 27543 ft | 459 kts | 114° |
| 2026-05-07 16:22 | 14.43055 | -16.06856 | 27930 ft | 462 kts | 114° |
| 2026-05-07 16:23 | 14.41945 | -16.03731 | 28318 ft | 465 kts | 114° |
| 2026-05-07 16:23 | 14.40828 | -16.00592 | 28702 ft | 468 kts | 114° |
| 2026-05-07 16:23 | 14.39702 | -15.97425 | 29081 ft | 471 kts | 114° |
| 2026-05-07 16:23 | 14.38573 | -15.94253 | 29448 ft | 474 kts | 115° |
| 2026-05-07 16:24 | 14.37434 | -15.91054 | 29823 ft | 476 kts | 115° |
| 2026-05-07 16:24 | 14.36290 | -15.87843 | 30128 ft | 478 kts | 115° |
| 2026-05-07 16:24 | 14.35156 | -15.84660 | 30439 ft | 480 kts | 115° |
| 2026-05-07 16:24 | 14.33984 | -15.81373 | 30760 ft | 482 kts | 115° |
| 2026-05-07 16:25 | 14.32841 | -15.78169 | 31057 ft | 484 kts | 115° |
| 2026-05-07 16:25 | 14.31678 | -15.74907 | 31346 ft | 486 kts | 115° |
| 2026-05-07 16:25 | 14.30509 | -15.71633 | 31640 ft | 488 kts | 115° |
| 2026-05-07 16:25 | 14.29336 | -15.68350 | 32016 ft | 487 kts | 115° |
| 2026-05-07 16:26 | 14.28169 | -15.65082 | 32453 ft | 485 kts | 115° |
| 2026-05-07 16:26 | 14.27005 | -15.61822 | 32890 ft | 484 kts | 115° |
| 2026-05-07 16:26 | 14.25839 | -15.58563 | 33292 ft | 484 kts | 115° |
| 2026-05-07 16:26 | 14.24674 | -15.55309 | 33671 ft | 484 kts | 115° |
| 2026-05-07 16:27 | 14.23510 | -15.52058 | 34021 ft | 483 kts | 115° |
| 2026-05-07 16:27 | 14.22351 | -15.48817 | 34354 ft | 483 kts | 114° |
| 2026-05-07 16:27 | 14.21325 | -15.45509 | 34666 ft | 485 kts | 110° |
| 2026-05-07 16:27 | 14.20412 | -15.42165 | 34969 ft | 485 kts | 109° |
| 2026-05-07 16:28 | 14.19543 | -15.38803 | 35257 ft | 486 kts | 109° |
| 2026-05-07 16:28 | 14.18684 | -15.35438 | 35557 ft | 485 kts | 109° |
| 2026-05-07 16:28 | 14.17820 | -15.32085 | 35850 ft | 484 kts | 109° |
| 2026-05-07 16:28 | 14.16943 | -15.28734 | 36164 ft | 483 kts | 109° |
| 2026-05-07 16:29 | 14.16059 | -15.25397 | 36458 ft | 483 kts | 109° |
| 2026-05-07 16:29 | 14.15167 | -15.22058 | 36710 ft | 483 kts | 109° |
| 2026-05-07 16:29 | 14.14271 | -15.18719 | 36826 ft | 486 kts | 109° |
| 2026-05-07 16:30 | 14.12445 | -15.11933 | 36816 ft | 497 kts | 109° |
| 2026-05-07 16:30 | 14.10584 | -15.05005 | 36823 ft | 506 kts | 109° |
| 2026-05-07 16:31 | 14.08696 | -14.97971 | 36808 ft | 510 kts | 109° |
| 2026-05-07 16:31 | 14.06804 | -14.90928 | 36797 ft | 510 kts | 109° |
| 2026-05-07 16:32 | 14.04920 | -14.83931 | 36805 ft | 510 kts | 109° |
| 2026-05-07 16:32 | 14.03019 | -14.76895 | 36809 ft | 509 kts | 109° |
| 2026-05-07 16:33 | 14.01115 | -14.69878 | 36811 ft | 509 kts | 109° |
| 2026-05-07 16:33 | 13.99207 | -14.62854 | 36802 ft | 509 kts | 109° |
| 2026-05-07 16:34 | 13.97300 | -14.55837 | 36805 ft | 508 kts | 109° |
| 2026-05-07 16:34 | 13.95394 | -14.48830 | 36801 ft | 508 kts | 109° |
| 2026-05-07 16:35 | 13.93487 | -14.41829 | 36796 ft | 508 kts | 109° |
| 2026-05-07 16:35 | 13.91581 | -14.34836 | 36800 ft | 507 kts | 109° |
| 2026-05-07 16:36 | 13.89674 | -14.27852 | 36799 ft | 507 kts | 109° |
| 2026-05-07 16:36 | 13.87767 | -14.20877 | 36799 ft | 506 kts | 109° |
| 2026-05-07 16:37 | 13.85861 | -14.13913 | 36797 ft | 506 kts | 109° |
| 2026-05-07 16:37 | 13.83953 | -14.06946 | 36797 ft | 505 kts | 109° |
| 2026-05-07 16:38 | 13.82046 | -13.99994 | 36795 ft | 505 kts | 109° |
| 2026-05-07 16:38 | 13.80137 | -13.93045 | 36791 ft | 504 kts | 109° |
| 2026-05-07 16:39 | 13.78228 | -13.86101 | 36780 ft | 504 kts | 109° |
| 2026-05-07 16:39 | 13.76331 | -13.79211 | 36780 ft | 504 kts | 109° |
| 2026-05-07 16:40 | 13.74421 | -13.72276 | 36773 ft | 503 kts | 109° |
| 2026-05-07 16:40 | 13.72545 | -13.65341 | 36778 ft | 504 kts | 107° |
| 2026-05-07 16:41 | 13.71093 | -13.58276 | 36779 ft | 505 kts | 104° |
| 2026-05-07 16:41 | 13.69785 | -13.51181 | 36777 ft | 505 kts | 104° |
| 2026-05-07 16:42 | 13.68447 | -13.44095 | 36782 ft | 504 kts | 104° |
| 2026-05-07 16:42 | 13.67072 | -13.37028 | 36788 ft | 504 kts | 104° |
| 2026-05-07 16:43 | 13.65682 | -13.29961 | 36788 ft | 504 kts | 105° |
| 2026-05-07 16:43 | 13.64294 | -13.22906 | 36788 ft | 504 kts | 104° |
| 2026-05-07 16:44 | 13.62906 | -13.15844 | 36790 ft | 504 kts | 104° |
| 2026-05-07 16:44 | 13.61517 | -13.08791 | 36784 ft | 504 kts | 104° |
| 2026-05-07 16:45 | 13.60124 | -13.01728 | 36784 ft | 504 kts | 104° |
| 2026-05-07 16:45 | 13.58730 | -12.94670 | 36782 ft | 504 kts | 104° |
| 2026-05-07 16:46 | 13.57334 | -12.87612 | 36781 ft | 504 kts | 104° |
| 2026-05-07 16:46 | 13.55935 | -12.80549 | 36781 ft | 504 kts | 104° |
| 2026-05-07 16:47 | 13.54534 | -12.73486 | 36779 ft | 505 kts | 104° |
| 2026-05-07 16:47 | 13.53135 | -12.66416 | 36779 ft | 505 kts | 104° |
| 2026-05-07 16:48 | 13.51976 | -12.60538 | 36771 ft | 505 kts | 104° |
| 2026-05-07 16:48 | 13.50557 | -12.53345 | 36771 ft | 505 kts | 104° |
| 2026-05-07 16:49 | 13.49158 | -12.46269 | 36774 ft | 505 kts | 104° |
| 2026-05-07 16:49 | 13.47757 | -12.39195 | 36764 ft | 505 kts | 104° |
| 2026-05-07 16:50 | 13.46356 | -12.32136 | 36763 ft | 504 kts | 104° |
| 2026-05-07 16:50 | 13.44954 | -12.25074 | 36761 ft | 504 kts | 104° |
| 2026-05-07 16:51 | 13.43556 | -12.18072 | 36757 ft | 504 kts | 104° |
| 2026-05-07 16:51 | 13.42145 | -12.11037 | 36759 ft | 503 kts | 104° |
| 2026-05-07 16:52 | 13.40963 | -12.05144 | 36752 ft | 503 kts | 104° |
| 2026-05-07 16:52 | 13.39320 | -11.96965 | 36754 ft | 503 kts | 104° |
| 2026-05-07 16:53 | 13.38137 | -11.91083 | 36742 ft | 502 kts | 104° |
| 2026-05-07 16:53 | 13.36732 | -11.84101 | 36749 ft | 502 kts | 104° |
| 2026-05-07 16:54 | 13.35315 | -11.77075 | 36739 ft | 502 kts | 104° |
| 2026-05-07 16:54 | 13.33895 | -11.70046 | 36743 ft | 502 kts | 104° |
| 2026-05-07 16:55 | 13.32476 | -11.63030 | 36736 ft | 502 kts | 104° |
| 2026-05-07 16:55 | 13.31056 | -11.56015 | 36743 ft | 502 kts | 104° |
| 2026-05-07 16:56 | 13.29633 | -11.49002 | 36738 ft | 502 kts | 104° |
| 2026-05-07 16:56 | 13.27497 | -11.38489 | 36734 ft | 501 kts | 104° |
| 2026-05-07 16:57 | 13.26070 | -11.31480 | 36729 ft | 501 kts | 104° |
| 2026-05-07 16:57 | 13.24640 | -11.24470 | 36721 ft | 503 kts | 104° |
| 2026-05-07 16:58 | 13.23205 | -11.17439 | 36716 ft | 504 kts | 104° |
| 2026-05-07 16:58 | 13.21761 | -11.10382 | 36712 ft | 505 kts | 104° |
| 2026-05-07 16:59 | 13.20316 | -11.03326 | 36709 ft | 506 kts | 104° |
| 2026-05-07 16:59 | 13.18867 | -10.96260 | 36705 ft | 506 kts | 104° |
| 2026-05-07 17:00 | 13.17425 | -10.89237 | 36707 ft | 506 kts | 104° |
| 2026-05-07 17:00 | 13.15971 | -10.82166 | 36705 ft | 506 kts | 104° |
| 2026-05-07 17:01 | 13.14517 | -10.75108 | 36706 ft | 506 kts | 104° |
| 2026-05-07 17:01 | 13.13061 | -10.68048 | 36706 ft | 505 kts | 104° |
| 2026-05-07 17:02 | 13.11605 | -10.60999 | 36709 ft | 505 kts | 104° |
| 2026-05-07 17:02 | 13.10149 | -10.53957 | 36714 ft | 504 kts | 104° |
| 2026-05-07 17:03 | 13.08691 | -10.46918 | 36710 ft | 504 kts | 104° |
| 2026-05-07 17:03 | 13.07232 | -10.39890 | 36717 ft | 503 kts | 104° |
| 2026-05-07 17:04 | 13.05766 | -10.32877 | 36719 ft | 503 kts | 104° |
| 2026-05-07 17:04 | 13.04297 | -10.25861 | 36716 ft | 503 kts | 104° |
| 2026-05-07 17:05 | 13.02827 | -10.18844 | 36726 ft | 503 kts | 104° |
| 2026-05-07 17:05 | 13.01366 | -10.11881 | 36725 ft | 503 kts | 104° |
| 2026-05-07 17:06 | 12.99894 | -10.04870 | 36724 ft | 503 kts | 104° |
| 2026-05-07 17:06 | 12.98420 | -9.97860 | 36723 ft | 503 kts | 104° |
| 2026-05-07 17:07 | 12.96944 | -9.90850 | 36727 ft | 503 kts | 104° |
| 2026-05-07 17:07 | 12.95468 | -9.83851 | 36719 ft | 502 kts | 104° |
| 2026-05-07 17:08 | 12.93990 | -9.76849 | 36732 ft | 502 kts | 104° |
| 2026-05-07 17:08 | 12.92514 | -9.69856 | 36728 ft | 502 kts | 104° |
| 2026-05-07 17:09 | 12.91037 | -9.62850 | 36736 ft | 502 kts | 104° |
| 2026-05-07 17:09 | 12.89565 | -9.55872 | 36688 ft | 493 kts | 104° |
| 2026-05-07 17:10 | 12.88853 | -9.52495 | 36354 ft | 479 kts | 104° |
| 2026-05-07 17:10 | 12.88155 | -9.49188 | 35751 ft | 471 kts | 104° |
| 2026-05-07 17:10 | 12.87463 | -9.45922 | 35106 ft | 466 kts | 104° |
| 2026-05-07 17:10 | 12.86780 | -9.42698 | 34481 ft | 461 kts | 104° |
| 2026-05-07 17:11 | 12.86103 | -9.39504 | 33884 ft | 456 kts | 104° |
| 2026-05-07 17:11 | 12.85433 | -9.36344 | 33237 ft | 451 kts | 104° |
| 2026-05-07 17:11 | 12.84774 | -9.33237 | 32692 ft | 443 kts | 105° |
| 2026-05-07 17:11 | 12.84125 | -9.30180 | 32183 ft | 434 kts | 105° |
| 2026-05-07 17:12 | 12.83498 | -9.27225 | 31661 ft | 427 kts | 105° |
| 2026-05-07 17:12 | 12.82871 | -9.24277 | 31132 ft | 420 kts | 105° |
| 2026-05-07 17:12 | 12.82254 | -9.21373 | 30623 ft | 414 kts | 105° |
| 2026-05-07 17:12 | 12.81647 | -9.18518 | 30122 ft | 407 kts | 105° |
| 2026-05-07 17:13 | 12.81049 | -9.15707 | 29604 ft | 400 kts | 105° |
| 2026-05-07 17:13 | 12.80459 | -9.12941 | 28916 ft | 396 kts | 105° |
| 2026-05-07 17:13 | 12.79873 | -9.10195 | 28193 ft | 393 kts | 104° |
| 2026-05-07 17:13 | 12.79297 | -9.07496 | 27754 ft | 383 kts | 104° |
| 2026-05-07 17:14 | 12.78735 | -9.04858 | 27296 ft | 375 kts | 104° |
| 2026-05-07 17:14 | 12.78184 | -9.02277 | 26879 ft | 367 kts | 104° |
| 2026-05-07 17:14 | 12.77644 | -8.99750 | 26477 ft | 360 kts | 104° |
| 2026-05-07 17:14 | 12.77108 | -8.97243 | 26104 ft | 361 kts | 104° |
| 2026-05-07 17:15 | 12.76565 | -8.94712 | 25710 ft | 367 kts | 104° |
| 2026-05-07 17:15 | 12.76008 | -8.92117 | 25282 ft | 378 kts | 103° |
| 2026-05-07 17:15 | 12.75441 | -8.89471 | 24847 ft | 382 kts | 103° |
| 2026-05-07 17:15 | 12.74872 | -8.86815 | 24409 ft | 381 kts | 103° |
| 2026-05-07 17:16 | 12.74306 | -8.84169 | 23976 ft | 380 kts | 103° |
| 2026-05-07 17:16 | 12.73740 | -8.81526 | 23545 ft | 379 kts | 103° |
| 2026-05-07 17:16 | 12.73175 | -8.78889 | 23065 ft | 379 kts | 103° |
| 2026-05-07 17:16 | 12.72611 | -8.76261 | 22597 ft | 377 kts | 103° |
| 2026-05-07 17:17 | 12.72052 | -8.73651 | 22135 ft | 374 kts | 103° |
| 2026-05-07 17:17 | 12.71495 | -8.71056 | 21708 ft | 371 kts | 103° |
| 2026-05-07 17:17 | 12.70942 | -8.68482 | 21275 ft | 368 kts | 103° |
| 2026-05-07 17:17 | 12.70393 | -8.65931 | 20848 ft | 365 kts | 103° |
| 2026-05-07 17:18 | 12.69850 | -8.63405 | 20427 ft | 362 kts | 103° |
| 2026-05-07 17:18 | 12.69310 | -8.60892 | 20007 ft | 359 kts | 103° |
| 2026-05-07 17:18 | 12.68775 | -8.58407 | 19598 ft | 357 kts | 103° |
| 2026-05-07 17:18 | 12.68242 | -8.55934 | 19183 ft | 354 kts | 102° |
| 2026-05-07 17:19 | 12.67715 | -8.53485 | 18775 ft | 351 kts | 102° |
| 2026-05-07 17:19 | 12.67191 | -8.51055 | 18355 ft | 349 kts | 102° |
| 2026-05-07 17:19 | 12.66669 | -8.48636 | 17913 ft | 346 kts | 102° |
| 2026-05-07 17:19 | 12.66151 | -8.46234 | 17452 ft | 344 kts | 102° |
| 2026-05-07 17:20 | 12.65639 | -8.43857 | 17017 ft | 340 kts | 102° |
| 2026-05-07 17:20 | 12.65130 | -8.41504 | 16604 ft | 337 kts | 102° |
| 2026-05-07 17:20 | 12.64630 | -8.39189 | 16410 ft | 327 kts | 102° |
| 2026-05-07 17:20 | 12.64196 | -8.36952 | 16261 ft | 315 kts | 94° |
| 2026-05-07 17:21 | 12.64378 | -8.34756 | 16047 ft | 307 kts | 73° |
| 2026-05-07 17:21 | 12.65176 | -8.32756 | 15822 ft | 301 kts | 65° |
| 2026-05-07 17:21 | 12.66090 | -8.30849 | 15570 ft | 295 kts | 64° |
| 2026-05-07 17:21 | 12.66996 | -8.29008 | 15250 ft | 293 kts | 64° |
| 2026-05-07 17:22 | 12.67909 | -8.27149 | 14920 ft | 291 kts | 64° |
| 2026-05-07 17:22 | 12.68811 | -8.25297 | 14586 ft | 290 kts | 64° |
| 2026-05-07 17:22 | 12.69703 | -8.23451 | 14249 ft | 289 kts | 64° |
| 2026-05-07 17:22 | 12.70589 | -8.21609 | 13900 ft | 288 kts | 64° |
| 2026-05-07 17:23 | 12.71472 | -8.19766 | 13544 ft | 288 kts | 64° |
| 2026-05-07 17:23 | 12.72352 | -8.17924 | 13159 ft | 288 kts | 64° |
| 2026-05-07 17:23 | 12.73229 | -8.16086 | 12793 ft | 287 kts | 64° |
| 2026-05-07 17:23 | 12.74104 | -8.14253 | 12434 ft | 285 kts | 64° |
| 2026-05-07 17:24 | 12.74973 | -8.12430 | 12079 ft | 284 kts | 64° |
| 2026-05-07 17:24 | 12.75838 | -8.10618 | 11731 ft | 283 kts | 64° |
| 2026-05-07 17:24 | 12.76699 | -8.08810 | 11388 ft | 282 kts | 64° |
| 2026-05-07 17:24 | 12.77473 | -8.06978 | 11032 ft | 280 kts | 77° |
| 2026-05-07 17:25 | 12.77595 | -8.05002 | 10709 ft | 278 kts | 94° |
| 2026-05-07 17:25 | 12.77415 | -8.03034 | 10354 ft | 278 kts | 96° |
| 2026-05-07 17:25 | 12.77202 | -8.01072 | 10018 ft | 277 kts | 96° |
| 2026-05-07 17:25 | 12.76988 | -7.99113 | 9678 ft | 277 kts | 96° |
| 2026-05-07 17:26 | 12.76780 | -7.97157 | 9309 ft | 276 kts | 96° |
| 2026-05-07 17:26 | 12.76580 | -7.95232 | 9026 ft | 273 kts | 96° |
| 2026-05-07 17:26 | 12.76383 | -7.93302 | 8614 ft | 275 kts | 96° |
| 2026-05-07 17:26 | 12.76188 | -7.91378 | 8375 ft | 269 kts | 96° |
| 2026-05-07 17:27 | 12.75995 | -7.89449 | 7964 ft | 272 kts | 96° |
| 2026-05-07 17:27 | 12.75803 | -7.87526 | 7611 ft | 272 kts | 96° |
| 2026-05-07 17:27 | 12.75612 | -7.85605 | 7280 ft | 271 kts | 97° |
| 2026-05-07 17:27 | 12.75421 | -7.83690 | 6946 ft | 270 kts | 96° |
| 2026-05-07 17:28 | 12.75231 | -7.81778 | 6599 ft | 270 kts | 97° |
| 2026-05-07 17:28 | 12.75040 | -7.79872 | 6263 ft | 269 kts | 96° |
| 2026-05-07 17:28 | 12.74635 | -7.78023 | 5897 ft | 266 kts | 117° |
| 2026-05-07 17:28 | 12.73483 | -7.76571 | 5572 ft | 264 kts | 143° |
| 2026-05-07 17:29 | 12.71900 | -7.75731 | 5505 ft | 249 kts | 161° |
| 2026-05-07 17:29 | 12.70280 | -7.75282 | 5377 ft | 234 kts | 166° |
| 2026-05-07 17:29 | 12.68737 | -7.74913 | 5230 ft | 222 kts | 167° |
| 2026-05-07 17:29 | 12.67255 | -7.74915 | 5108 ft | 210 kts | 195° |
| 2026-05-07 17:30 | 12.66001 | -7.75593 | 4942 ft | 204 kts | 219° |
| 2026-05-07 17:30 | 12.65111 | -7.76709 | 4736 ft | 201 kts | 234° |
| 2026-05-07 17:30 | 12.64347 | -7.77905 | 4505 ft | 200 kts | 234° |
| 2026-05-07 17:30 | 12.63592 | -7.79089 | 4242 ft | 197 kts | 234° |
| 2026-05-07 17:31 | 12.62851 | -7.80249 | 4012 ft | 192 kts | 234° |
| 2026-05-07 17:31 | 12.62127 | -7.81380 | 3794 ft | 188 kts | 235° |
| 2026-05-07 17:31 | 12.61432 | -7.82464 | 3594 ft | 176 kts | 233° |
| 2026-05-07 17:31 | 12.60779 | -7.83480 | 3550 ft | 167 kts | 234° |
| 2026-05-07 17:32 | 12.60149 | -7.84461 | 3347 ft | 163 kts | 234° |
| 2026-05-07 17:32 | 12.59546 | -7.85399 | 3168 ft | 153 kts | 234° |
| 2026-05-07 17:32 | 12.58970 | -7.86293 | 2943 ft | 148 kts | 233° |
| 2026-05-07 17:32 | 12.58594 | -7.86874 | 2824 ft | 147 kts | 234° |
| 2026-05-07 17:33 | 12.57833 | -7.88056 | 2577 ft | 150 kts | 233° |
| 2026-05-07 17:33 | 12.57254 | -7.88951 | 2372 ft | 151 kts | 233° |
| 2026-05-07 17:33 | 12.56683 | -7.89835 | 2161 ft | 147 kts | 232° |
| 2026-05-07 17:33 | 12.56120 | -7.90705 | 1958 ft | 147 kts | 234° |
| 2026-05-07 17:34 | 12.55566 | -7.91560 | 1745 ft | 145 kts | 236° |
| 2026-05-07 17:34 | 12.55017 | -7.92414 | 1543 ft | 142 kts | 236° |
| 2026-05-07 17:34 | 12.54476 | -7.93259 | 1360 ft | 142 kts | 235° |
| 2026-05-07 17:34 | 12.53959 | -7.94054 | 1251 ft | 109 kts | 236° |
| 2026-05-07 17:35 | 12.53821 | -7.94351 | 1248 ft | 23 kts | 313° |
| 2026-05-07 17:35 | 12.53952 | -7.94433 | 1244 ft | 21 kts | 326° |
| 2026-05-07 17:35 | 12.54040 | -7.94494 | 1245 ft | 10 kts | 327° |
| 2026-05-07 17:35 | 12.54085 | -7.94523 | 1238 ft | 1 kts | 325° |
| 2026-05-07 17:36 | 12.54087 | -7.94525 | 1244 ft | 0 kts | 324° |